createdAt,value
2018-02-24T00:00:39.108Z,13.90
2018-02-24T00:01:39.103Z,13.80
2018-02-24T00:02:39.113Z,14.00
2018-02-24T00:03:39.122Z,14.10
2018-02-24T00:04:39.131Z,14.30
2018-02-24T00:05:39.144Z,14.10
2018-02-24T00:06:39.147Z,14.10
2018-02-24T00:07:39.202Z,14.20
2018-02-24T00:09:39.190Z,13.90
2018-02-24T00:10:39.220Z,14.70
2018-02-24T00:11:39.205Z,14.60
2018-02-24T00:12:39.198Z,14.00
2018-02-24T00:13:39.202Z,15.30
2018-02-24T00:14:39.247Z,14.40
2018-02-24T00:15:39.230Z,15.10
2018-02-24T00:16:39.222Z,15.10
2018-02-24T00:17:39.233Z,14.90
2018-02-24T00:18:39.255Z,15.20
2018-02-24T00:19:39.272Z,14.80
2018-02-24T00:20:39.317Z,14.40
2018-02-24T00:21:39.262Z,14.40
2018-02-24T00:22:39.268Z,14.80
2018-02-24T00:23:39.277Z,15.30
2018-02-24T00:24:39.286Z,14.40
2018-02-24T00:25:39.296Z,15.00
2018-02-24T00:26:39.300Z,15.20
2018-02-24T00:27:39.317Z,15.90
2018-02-24T00:28:39.322Z,14.50
2018-02-24T00:29:39.327Z,14.70
2018-02-24T00:30:39.336Z,15.40
2018-02-24T00:31:39.342Z,15.10
2018-02-24T00:32:39.351Z,14.20
2018-02-24T00:33:39.354Z,15.40
2018-02-24T00:34:39.364Z,14.90
2018-02-24T00:35:39.369Z,15.10
2018-02-24T00:36:39.380Z,15.20
2018-02-24T00:37:39.637Z,15.20
2018-02-24T00:38:39.499Z,15.70
2018-02-24T00:39:39.465Z,15.60
2018-02-24T00:40:39.436Z,15.50
2018-02-24T00:41:39.424Z,15.20
2018-02-24T00:42:39.425Z,14.30
2018-02-24T00:43:39.432Z,14.80
2018-02-24T00:44:39.459Z,15.50
2018-02-24T00:45:39.447Z,14.80
2018-02-24T00:46:39.465Z,15.00
2018-02-24T00:47:39.468Z,15.70
2018-02-24T00:48:39.475Z,15.10
2018-02-24T00:49:39.477Z,15.20
2018-02-24T00:50:39.486Z,15.20
2018-02-24T00:51:39.496Z,15.50
2018-02-24T00:52:39.503Z,14.90
2018-02-24T00:53:39.511Z,15.60
2018-02-24T00:54:39.552Z,15.40
2018-02-24T00:55:39.535Z,15.40
2018-02-24T00:56:39.537Z,14.70
2018-02-24T00:57:39.545Z,14.10
2018-02-24T00:58:39.552Z,14.80
2018-02-24T00:59:39.560Z,15.70
2018-02-24T01:00:39.603Z,15.30
2018-02-24T01:01:39.580Z,15.30
2018-02-24T01:02:39.581Z,15.60
2018-02-24T01:03:39.618Z,15.80
2018-02-24T01:04:39.620Z,15.40
2018-02-24T01:05:39.617Z,15.30
2018-02-24T01:06:39.613Z,14.70
2018-02-24T01:07:39.620Z,15.60
2018-02-24T01:08:39.629Z,15.50
2018-02-24T01:09:39.640Z,15.10
2018-02-24T01:10:39.676Z,15.40
2018-02-24T01:11:39.659Z,15.40
2018-02-24T01:12:39.673Z,15.20
2018-02-24T01:13:39.677Z,14.70
2018-02-24T01:14:39.677Z,15.50
2018-02-24T01:15:39.697Z,15.40
2018-02-24T01:16:39.694Z,15.30
2018-02-24T01:17:39.731Z,15.80
2018-02-24T01:18:39.705Z,15.50
2018-02-24T01:19:39.717Z,14.80
2018-02-24T01:20:39.740Z,15.50
2018-02-24T01:21:39.729Z,15.60
2018-02-24T01:22:39.741Z,15.10
2018-02-24T01:23:39.747Z,15.80
2018-02-24T01:24:39.753Z,15.30
2018-02-24T01:25:39.760Z,15.80
2018-02-24T01:26:39.767Z,15.50
2018-02-24T01:27:39.774Z,14.90
2018-02-24T01:28:39.791Z,15.50
2018-02-24T01:29:39.797Z,14.80
2018-02-24T01:30:39.799Z,15.30
2018-02-24T01:31:39.810Z,14.70
2018-02-24T01:32:39.813Z,14.60
2018-02-24T01:33:39.827Z,14.40
2018-02-24T01:34:39.828Z,14.70
2018-02-24T01:35:39.843Z,14.20
2018-02-24T01:36:39.845Z,15.70
2018-02-24T01:37:39.851Z,14.80
2018-02-24T01:38:39.856Z,15.00
2018-02-24T01:39:39.973Z,14.90
2018-02-24T01:40:39.865Z,15.60
2018-02-24T01:41:39.979Z,15.00
2018-02-24T01:42:39.936Z,14.80
2018-02-24T01:43:39.889Z,15.00
2018-02-24T01:44:39.896Z,14.90
2018-02-24T01:45:39.906Z,14.90
2018-02-24T01:46:39.909Z,15.40
2018-02-24T01:47:39.919Z,15.30
2018-02-24T01:48:39.927Z,14.70
2018-02-24T01:49:39.943Z,15.80
2018-02-24T01:50:39.945Z,15.70
2018-02-24T01:51:39.950Z,14.90
2018-02-24T01:52:39.958Z,15.30
2018-02-24T01:53:39.964Z,14.30
2018-02-24T01:54:39.973Z,14.10
2018-02-24T01:55:39.982Z,14.90
2018-02-24T01:56:39.988Z,15.10
2018-02-24T01:57:40.000Z,15.00
2018-02-24T01:58:40.001Z,15.40
2018-02-24T01:59:40.011Z,15.00
2018-02-24T02:00:40.017Z,14.60
2018-02-24T02:01:40.026Z,14.90
2018-02-24T02:02:40.039Z,15.20
2018-02-24T02:03:40.053Z,14.80
2018-02-24T02:04:40.047Z,15.80
2018-02-24T02:05:40.055Z,14.40
2018-02-24T02:06:40.064Z,15.40
2018-02-24T02:07:40.071Z,14.70
2018-02-24T02:08:40.078Z,14.70
2018-02-24T02:09:40.090Z,14.40
2018-02-24T02:10:40.096Z,14.80
2018-02-24T02:11:40.101Z,15.40
2018-02-24T02:12:40.109Z,15.20
2018-02-24T02:14:40.516Z,14.30
2018-02-24T02:15:40.365Z,14.70
2018-02-24T02:16:40.137Z,14.30
2018-02-24T02:17:40.145Z,15.50
2018-02-24T02:18:40.154Z,15.60
2018-02-24T02:19:40.161Z,14.40
2018-02-24T02:20:40.168Z,15.00
2018-02-24T02:21:40.177Z,15.90
2018-02-24T02:22:40.183Z,14.10
2018-02-24T02:23:40.188Z,14.60
2018-02-24T02:24:40.197Z,15.30
2018-02-24T02:25:40.203Z,14.60
2018-02-24T02:26:40.212Z,15.40
2018-02-24T02:27:40.221Z,15.10
2018-02-24T02:28:40.227Z,14.10
2018-02-24T02:29:40.238Z,14.90
2018-02-24T02:30:40.243Z,14.80
2018-02-24T02:31:40.250Z,14.90
2018-02-24T02:32:40.257Z,14.50
2018-02-24T02:33:40.265Z,14.30
2018-02-24T02:34:40.276Z,14.70
2018-02-24T02:35:40.283Z,14.60
2018-02-24T02:36:40.288Z,14.40
2018-02-24T02:37:40.294Z,14.60
2018-02-24T02:38:40.301Z,14.60
2018-02-24T02:39:40.310Z,14.40
2018-02-24T02:40:40.319Z,15.30
2018-02-24T02:41:40.327Z,15.20
2018-02-24T02:42:40.337Z,14.70
2018-02-24T02:43:40.340Z,14.30
2018-02-24T02:44:40.352Z,14.30
2018-02-24T02:45:40.354Z,15.00
2018-02-24T02:48:40.572Z,14.80
2018-02-24T02:49:40.384Z,15.10
2018-02-24T02:50:40.390Z,15.10
2018-02-24T02:51:40.408Z,14.70
2018-02-24T02:52:40.416Z,15.30
2018-02-24T02:53:40.418Z,15.00
2018-02-24T02:54:40.422Z,14.40
2018-02-24T02:55:40.431Z,14.10
2018-02-24T02:56:40.437Z,13.80
2018-02-24T02:57:40.451Z,14.00
2018-02-24T02:58:40.450Z,14.80
2018-02-24T02:59:40.457Z,15.00
2018-02-24T03:00:40.474Z,15.00
2018-02-24T03:01:40.481Z,15.20
2018-02-24T03:02:40.486Z,15.20
2018-02-24T03:03:40.487Z,14.20
2018-02-24T03:04:40.496Z,14.90
2018-02-24T03:05:40.526Z,14.70
2018-02-24T03:06:40.514Z,14.30
2018-02-24T03:07:40.519Z,14.50
2018-02-24T03:08:40.524Z,15.10
2018-02-24T03:09:40.532Z,14.80
2018-02-24T03:10:40.540Z,14.10
2018-02-24T03:11:40.548Z,15.40
2018-02-24T03:12:40.557Z,14.80
2018-02-24T03:13:40.562Z,14.60
2018-02-24T03:14:40.574Z,15.10
2018-02-24T03:15:40.578Z,15.00
2018-02-24T03:16:40.587Z,15.30
2018-02-24T03:17:40.603Z,15.40
2018-02-24T03:18:40.598Z,15.00
2018-02-24T03:19:40.616Z,15.40
2018-02-24T03:20:40.625Z,14.40
2018-02-24T03:21:40.909Z,14.40
2018-02-24T03:22:40.640Z,15.00
2018-02-24T03:23:40.638Z,14.60
2018-02-24T03:24:40.645Z,14.60
2018-02-24T03:25:40.650Z,14.90
2018-02-24T03:26:40.657Z,15.60
2018-02-24T03:27:40.666Z,14.60
2018-02-24T03:28:40.678Z,14.80
2018-02-24T03:29:40.680Z,14.70
2018-02-24T03:30:40.693Z,15.10
2018-02-24T03:31:40.704Z,15.20
2018-02-24T03:32:40.703Z,15.10
2018-02-24T03:33:40.712Z,14.80
2018-02-24T03:34:40.717Z,15.00
2018-02-24T03:35:40.726Z,14.60
2018-02-24T03:36:40.734Z,14.80
2018-02-24T03:37:40.739Z,14.70
2018-02-24T03:38:40.749Z,14.50
2018-02-24T03:39:40.857Z,14.80
2018-02-24T03:40:40.763Z,14.80
2018-02-24T03:41:40.774Z,14.90
2018-02-24T03:42:40.776Z,14.90
2018-02-24T03:43:40.784Z,15.20
2018-02-24T03:44:40.818Z,14.80
2018-02-24T03:45:40.800Z,15.00
2018-02-24T03:46:40.817Z,15.10
2018-02-24T03:47:40.821Z,14.90
2018-02-24T03:48:40.822Z,14.20
2018-02-24T03:49:41.035Z,15.80
2018-02-24T03:51:41.389Z,15.10
2018-02-24T03:52:40.858Z,15.20
2018-02-24T03:53:40.863Z,16.60
2018-02-24T03:54:40.866Z,15.80
2018-02-24T03:55:40.879Z,14.80
2018-02-24T03:56:40.884Z,15.20
2018-02-24T03:57:40.891Z,15.30
2018-02-24T03:58:40.895Z,15.20
2018-02-24T03:59:40.905Z,14.70
2018-02-24T04:00:40.911Z,15.10
2018-02-24T04:01:40.919Z,14.60
2018-02-24T04:02:40.925Z,15.00
2018-02-24T04:03:40.933Z,15.00
2018-02-24T04:04:40.940Z,15.80
2018-02-24T04:05:40.948Z,15.70
2018-02-24T04:06:40.953Z,15.80
2018-02-24T04:07:40.963Z,15.90
2018-02-24T04:08:40.974Z,15.70
2018-02-24T04:09:40.975Z,15.30
2018-02-24T04:10:40.983Z,16.10
2018-02-24T04:11:40.991Z,15.70
2018-02-24T04:12:41.003Z,14.90
2018-02-24T04:13:41.009Z,16.10
2018-02-24T04:14:41.012Z,16.00
2018-02-24T04:15:41.022Z,15.70
2018-02-24T04:16:41.031Z,15.70
2018-02-24T04:17:41.041Z,16.10
2018-02-24T04:18:41.041Z,15.00
2018-02-24T04:19:41.051Z,15.60
2018-02-24T04:20:41.065Z,15.50
2018-02-24T04:21:41.066Z,15.70
2018-02-24T04:22:41.072Z,15.90
2018-02-24T04:24:41.331Z,15.00
2018-02-24T04:26:41.156Z,15.90
2018-02-24T04:27:41.108Z,16.20
2018-02-24T04:28:41.124Z,15.60
2018-02-24T04:29:41.124Z,16.20
2018-02-24T04:30:41.132Z,16.60
2018-02-24T04:31:41.141Z,16.20
2018-02-24T04:32:41.149Z,15.90
2018-02-24T04:33:41.161Z,15.70
2018-02-24T04:34:41.160Z,15.80
2018-02-24T04:35:41.168Z,16.50
2018-02-24T04:36:41.176Z,16.20
2018-02-24T04:37:41.189Z,16.30
2018-02-24T04:38:41.198Z,16.40
2018-02-24T04:39:41.207Z,16.60
2018-02-24T04:40:41.207Z,16.00
2018-02-24T04:41:41.212Z,16.30
2018-02-24T04:42:41.217Z,15.10
2018-02-24T04:43:41.227Z,15.90
2018-02-24T04:44:41.231Z,15.80
2018-02-24T04:45:41.240Z,16.00
2018-02-24T04:46:41.251Z,15.70
2018-02-24T04:47:41.264Z,16.40
2018-02-24T04:48:41.261Z,16.40
2018-02-24T04:49:41.268Z,16.00
2018-02-24T04:50:41.277Z,16.20
2018-02-24T04:51:41.285Z,15.80
2018-02-24T04:52:41.293Z,14.80
2018-02-24T04:53:41.297Z,15.90
2018-02-24T04:54:41.356Z,16.40
2018-02-24T04:55:41.367Z,16.20
2018-02-24T04:56:41.629Z,16.50
2018-02-24T04:57:41.946Z,15.90
2018-02-24T04:58:41.335Z,16.40
2018-02-24T04:59:41.341Z,16.00
2018-02-24T05:00:41.354Z,16.30
2018-02-24T05:01:41.360Z,16.00
2018-02-24T05:02:41.398Z,16.50
2018-02-24T05:03:41.374Z,16.50
2018-02-24T05:04:41.381Z,15.50
2018-02-24T05:05:41.387Z,16.10
2018-02-24T05:06:41.395Z,15.80
2018-02-24T05:07:41.401Z,17.10
2018-02-24T05:08:41.415Z,16.00
2018-02-24T05:09:41.412Z,16.40
2018-02-24T05:10:41.423Z,16.60
2018-02-24T05:11:41.429Z,15.80
2018-02-24T05:12:41.441Z,15.60
2018-02-24T05:13:41.459Z,15.90
2018-02-24T05:14:41.450Z,16.90
2018-02-24T05:15:41.459Z,15.90
2018-02-24T05:16:41.466Z,16.60
2018-02-24T05:17:41.473Z,17.10
2018-02-24T05:18:41.480Z,16.80
2018-02-24T05:19:41.486Z,16.60
2018-02-24T05:20:41.494Z,17.00
2018-02-24T05:21:41.500Z,15.90
2018-02-24T05:22:41.507Z,17.00
2018-02-24T05:23:41.517Z,16.10
2018-02-24T05:25:41.528Z,17.80
2018-02-24T05:26:41.593Z,16.80
2018-02-24T05:27:41.545Z,16.80
2018-02-24T05:28:42.065Z,16.40
2018-02-24T05:29:41.577Z,16.90
2018-02-24T05:30:42.010Z,16.90
2018-02-24T05:31:41.575Z,16.70
2018-02-24T05:32:41.578Z,16.00
2018-02-24T05:33:41.594Z,16.10
2018-02-24T05:34:41.594Z,16.50
2018-02-24T05:35:41.601Z,16.40
2018-02-24T05:36:41.612Z,17.20
2018-02-24T05:37:41.614Z,16.10
2018-02-24T05:38:41.622Z,16.90
2018-02-24T05:39:41.630Z,17.30
2018-02-24T05:40:41.644Z,17.10
2018-02-24T05:41:41.643Z,14.90
2018-02-24T05:42:41.653Z,16.60
2018-02-24T05:43:41.658Z,16.30
2018-02-24T05:44:41.674Z,17.70
2018-02-24T05:45:41.673Z,16.80
2018-02-24T05:47:41.693Z,15.80
2018-02-24T05:48:41.697Z,16.80
2018-02-24T05:49:41.703Z,16.70
2018-02-24T05:50:41.709Z,16.80
2018-02-24T05:51:41.729Z,17.00
2018-02-24T05:52:41.730Z,17.60
2018-02-24T05:53:41.732Z,16.50
2018-02-24T05:54:41.738Z,16.90
2018-02-24T05:55:41.749Z,17.00
2018-02-24T05:56:41.772Z,16.90
2018-02-24T05:58:41.770Z,17.60
2018-02-24T05:59:41.773Z,16.90
2018-02-24T06:00:41.941Z,17.60
2018-02-24T06:01:42.192Z,16.90
2018-02-24T06:02:41.815Z,17.20
2018-02-24T06:03:41.810Z,17.00
2018-02-24T06:04:41.812Z,17.60
2018-02-24T06:05:41.824Z,17.40
2018-02-24T06:06:41.829Z,17.40
2018-02-24T06:07:41.838Z,17.70
2018-02-24T06:08:41.841Z,17.10
2018-02-24T06:09:41.851Z,17.40
2018-02-24T06:10:41.861Z,16.40
2018-02-24T06:11:41.867Z,17.70
2018-02-24T06:12:41.870Z,17.10
2018-02-24T06:13:41.877Z,17.50
2018-02-24T06:14:41.885Z,17.60
2018-02-24T06:15:41.890Z,17.40
2018-02-24T06:16:41.898Z,17.50
2018-02-24T06:17:41.905Z,17.40
2018-02-24T06:18:41.913Z,18.00
2018-02-24T06:19:41.922Z,17.00
2018-02-24T06:20:41.925Z,17.40
2018-02-24T06:21:41.934Z,17.10
2018-02-24T06:22:41.941Z,17.80
2018-02-24T06:23:41.948Z,17.50
2018-02-24T06:24:41.959Z,17.60
2018-02-24T06:25:41.964Z,17.50
2018-02-24T06:26:41.970Z,16.40
2018-02-24T06:27:41.975Z,17.70
2018-02-24T06:28:41.983Z,17.80
2018-02-24T06:29:41.990Z,17.00
2018-02-24T06:30:42.055Z,17.00
2018-02-24T06:31:42.016Z,17.10
2018-02-24T06:32:42.113Z,16.60
2018-02-24T06:33:42.021Z,16.90
2018-02-24T06:34:42.030Z,16.30
2018-02-24T06:35:42.034Z,17.10
2018-02-24T06:36:42.050Z,16.80
2018-02-24T06:37:42.053Z,17.10
2018-02-24T06:38:42.054Z,16.30
2018-02-24T06:39:42.062Z,17.30
2018-02-24T06:40:42.068Z,16.70
2018-02-24T06:41:42.076Z,16.70
2018-02-24T06:42:42.081Z,17.40
2018-02-24T06:43:42.095Z,16.60
2018-02-24T06:44:42.098Z,16.50
2018-02-24T06:45:42.105Z,17.20
2018-02-24T06:46:42.120Z,17.40
2018-02-24T06:47:42.121Z,17.60
2018-02-24T06:48:42.130Z,17.50
2018-02-24T06:49:42.134Z,17.10
2018-02-24T06:50:42.142Z,16.60
2018-02-24T06:51:42.154Z,16.40
2018-02-24T06:52:42.167Z,16.90
2018-02-24T06:53:42.165Z,16.90
2018-02-24T06:54:42.224Z,16.60
2018-02-24T06:55:42.209Z,17.10
2018-02-24T06:56:42.190Z,17.10
2018-02-24T06:57:42.191Z,16.10
2018-02-24T06:58:42.207Z,16.50
2018-02-24T06:59:42.208Z,16.40
2018-02-24T07:00:42.218Z,17.00
2018-02-24T07:01:42.222Z,16.40
2018-02-24T07:02:42.243Z,16.90
2018-02-24T07:03:42.337Z,16.90
2018-02-24T07:04:42.469Z,16.80
2018-02-24T07:05:42.482Z,16.10
2018-02-24T07:06:42.257Z,16.70
2018-02-24T07:07:42.266Z,15.90
2018-02-24T07:08:42.272Z,17.10
2018-02-24T07:09:42.282Z,16.40
2018-02-24T07:10:42.285Z,16.60
2018-02-24T07:11:42.294Z,17.20
2018-02-24T07:12:42.301Z,15.60
2018-02-24T07:13:42.307Z,15.60
2018-02-24T07:14:42.315Z,16.40
2018-02-24T07:15:42.480Z,16.00
2018-02-24T07:16:42.333Z,16.40
2018-02-24T07:17:42.336Z,16.70
2018-02-24T07:18:42.343Z,16.40
2018-02-24T07:19:42.352Z,15.90
2018-02-24T07:20:42.363Z,16.00
2018-02-24T07:21:42.394Z,16.00
2018-02-24T07:22:42.398Z,16.80
2018-02-24T07:23:42.382Z,16.20
2018-02-24T07:24:42.388Z,16.10
2018-02-24T07:25:42.396Z,15.40
2018-02-24T07:26:42.405Z,16.00
2018-02-24T07:27:42.411Z,15.50
2018-02-24T07:28:42.417Z,15.40
2018-02-24T07:29:42.430Z,15.20
2018-02-24T07:30:42.439Z,15.30
2018-02-24T07:31:42.443Z,14.90
2018-02-24T07:32:42.449Z,14.60
2018-02-24T07:33:42.452Z,16.00
2018-02-24T07:34:42.610Z,15.00
2018-02-24T07:36:43.142Z,14.90
2018-02-24T07:37:43.090Z,15.00
2018-02-24T07:38:42.495Z,13.80
2018-02-24T07:39:42.496Z,15.10
2018-02-24T07:40:42.503Z,15.00
2018-02-24T07:41:42.511Z,16.00
2018-02-24T07:42:42.535Z,14.70
2018-02-24T07:43:42.526Z,14.70
2018-02-24T07:44:42.534Z,13.90
2018-02-24T07:45:42.537Z,14.50
2018-02-24T07:46:42.559Z,14.20
2018-02-24T07:47:42.562Z,14.50
2018-02-24T07:48:42.563Z,14.00
2018-02-24T07:49:42.570Z,14.00
2018-02-24T07:50:42.576Z,14.20
2018-02-24T07:51:42.590Z,14.10
2018-02-24T07:52:42.601Z,14.80
2018-02-24T07:53:42.617Z,13.30
2018-02-24T07:54:42.606Z,13.00
2018-02-24T07:55:42.712Z,14.10
2018-02-24T07:56:42.620Z,13.50
2018-02-24T07:57:42.634Z,14.50
2018-02-24T07:58:42.648Z,14.10
2018-02-24T07:59:42.661Z,14.00
2018-02-24T08:00:42.656Z,13.80
2018-02-24T08:01:42.667Z,14.20
2018-02-24T08:02:42.666Z,14.00
2018-02-24T08:03:42.675Z,14.30
2018-02-24T08:04:42.716Z,13.30
2018-02-24T08:05:42.686Z,13.30
2018-02-24T08:06:42.694Z,14.00
2018-02-24T08:07:42.704Z,13.20
2018-02-24T08:09:43.061Z,13.30
2018-02-24T08:10:42.778Z,13.30
2018-02-24T08:11:42.739Z,12.70
2018-02-24T08:12:42.762Z,12.70
2018-02-24T08:13:42.753Z,13.00
2018-02-24T08:14:42.758Z,13.50
2018-02-24T08:15:42.760Z,13.10
2018-02-24T08:16:42.945Z,13.30
2018-02-24T08:17:42.785Z,12.90
2018-02-24T08:18:42.784Z,12.70
2018-02-24T08:19:42.801Z,11.90
2018-02-24T08:20:42.808Z,13.00
2018-02-24T08:21:42.813Z,12.80
2018-02-24T08:22:42.817Z,13.00
2018-02-24T08:23:42.827Z,12.20
2018-02-24T08:24:42.836Z,13.20
2018-02-24T08:25:42.884Z,12.40
2018-02-24T08:26:42.847Z,11.70
2018-02-24T08:27:42.860Z,12.30
2018-02-24T08:28:42.862Z,13.40
2018-02-24T08:29:42.869Z,12.20
2018-02-24T08:30:42.878Z,13.20
2018-02-24T08:31:42.916Z,13.20
2018-02-24T08:32:42.903Z,12.20
2018-02-24T08:33:42.901Z,12.70
2018-02-24T08:34:42.913Z,11.20
2018-02-24T08:35:42.920Z,11.30
2018-02-24T08:36:42.926Z,11.70
2018-02-24T08:37:42.956Z,11.90
2018-02-24T08:38:42.999Z,11.60
2018-02-24T08:40:43.216Z,11.50
2018-02-24T08:41:43.394Z,11.80
2018-02-24T08:42:42.973Z,11.80
2018-02-24T08:43:42.981Z,11.50
2018-02-24T08:44:43.038Z,11.70
2018-02-24T08:45:42.993Z,11.10
2018-02-24T08:47:43.242Z,11.40
2018-02-24T08:48:43.026Z,11.70
2018-02-24T08:49:43.031Z,11.70
2018-02-24T08:50:43.032Z,11.30
2018-02-24T08:51:43.042Z,10.80
2018-02-24T08:52:43.106Z,10.80
2018-02-24T08:53:43.060Z,11.10
2018-02-24T08:54:43.080Z,11.50
2018-02-24T08:56:43.089Z,10.60
2018-02-24T08:57:43.119Z,11.00
2018-02-24T08:58:43.103Z,10.30
2018-02-24T08:59:43.108Z,10.60
2018-02-24T09:00:43.112Z,10.30
2018-02-24T09:01:43.125Z,10.50
2018-02-24T09:02:43.126Z,10.30
2018-02-24T09:03:43.132Z,10.10
2018-02-24T09:04:43.146Z,10.30
2018-02-24T09:05:43.152Z,9.90
2018-02-24T09:06:43.186Z,10.30
2018-02-24T09:07:43.168Z,10.20
2018-02-24T09:08:43.172Z,10.20
2018-02-24T09:09:43.184Z,10.30
2018-02-24T09:10:43.192Z,10.80
2018-02-24T09:11:43.299Z,10.00
2018-02-24T09:12:43.324Z,10.40
2018-02-24T09:13:43.275Z,10.40
2018-02-24T09:14:43.222Z,9.70
2018-02-24T09:15:43.268Z,9.60
2018-02-24T09:16:43.608Z,9.90
2018-02-24T09:17:43.256Z,8.90
2018-02-24T09:18:43.254Z,9.30
2018-02-24T09:19:43.263Z,9.70
2018-02-24T09:20:43.270Z,8.80
2018-02-24T09:21:43.281Z,10.00
2018-02-24T09:22:43.290Z,9.60
2018-02-24T09:23:43.329Z,9.70
2018-02-24T09:24:43.329Z,9.60
2018-02-24T09:25:43.312Z,9.40
2018-02-24T09:26:43.323Z,9.30
2018-02-24T09:27:43.329Z,9.60
2018-02-24T09:28:43.338Z,9.90
2018-02-24T09:29:43.344Z,9.10
2018-02-24T09:30:43.372Z,9.10
2018-02-24T09:31:43.361Z,8.90
2018-02-24T09:32:43.375Z,9.30
2018-02-24T09:33:43.380Z,9.20
2018-02-24T09:34:43.383Z,9.50
2018-02-24T09:35:43.400Z,9.50
2018-02-24T09:36:43.404Z,9.40
2018-02-24T09:37:43.413Z,8.80
2018-02-24T09:38:43.437Z,8.60
2018-02-24T09:39:43.426Z,9.40
2018-02-24T09:40:43.538Z,9.30
2018-02-24T09:42:43.728Z,8.60
2018-02-24T09:43:43.453Z,8.90
2018-02-24T09:44:43.459Z,8.70
2018-02-24T09:45:44.732Z,9.10
2018-02-24T09:46:43.479Z,9.60
2018-02-24T09:47:43.507Z,9.20
2018-02-24T09:48:43.495Z,8.90
2018-02-24T09:49:43.795Z,8.70
2018-02-24T09:50:43.537Z,9.20
2018-02-24T09:51:44.221Z,9.10
2018-02-24T09:52:43.525Z,9.10
2018-02-24T09:53:43.539Z,9.00
2018-02-24T09:54:43.543Z,8.30
2018-02-24T09:55:43.554Z,8.90
2018-02-24T09:56:43.560Z,9.00
2018-02-24T09:57:43.568Z,8.80
2018-02-24T09:58:43.614Z,9.50
2018-02-24T09:59:43.589Z,8.90
2018-02-24T10:00:43.602Z,8.30
2018-02-24T10:01:43.614Z,8.50
2018-02-24T10:02:43.616Z,8.80
2018-02-24T10:03:43.623Z,9.20
2018-02-24T10:04:43.632Z,8.50
2018-02-24T10:05:43.640Z,8.30
2018-02-24T10:06:43.645Z,8.50
2018-02-24T10:07:43.654Z,9.30
2018-02-24T10:08:44.138Z,8.90
2018-02-24T10:09:43.672Z,8.50
2018-02-24T10:10:43.682Z,8.70
2018-02-24T10:11:43.688Z,8.60
2018-02-24T10:12:43.701Z,8.70
2018-02-24T10:13:43.910Z,8.80
2018-02-24T10:14:44.064Z,8.70
2018-02-24T10:15:43.755Z,8.10
2018-02-24T10:16:44.206Z,8.10
2018-02-24T10:17:43.757Z,8.10
2018-02-24T10:18:43.762Z,7.60
2018-02-24T10:19:43.761Z,8.40
2018-02-24T10:21:43.980Z,8.10
2018-02-24T10:22:43.791Z,7.80
2018-02-24T10:23:43.795Z,8.00
2018-02-24T10:24:43.809Z,8.10
2018-02-24T10:25:43.813Z,8.10
2018-02-24T10:26:43.825Z,7.40
2018-02-24T10:27:43.828Z,7.40
2018-02-24T10:28:43.838Z,7.90
2018-02-24T10:29:43.867Z,7.00
2018-02-24T10:30:43.855Z,6.80
2018-02-24T10:31:43.868Z,7.30
2018-02-24T10:32:43.889Z,7.60
2018-02-24T10:33:43.882Z,7.40
2018-02-24T10:34:43.897Z,7.20
2018-02-24T10:35:43.900Z,7.60
2018-02-24T10:36:43.911Z,7.20
2018-02-24T10:37:43.917Z,7.30
2018-02-24T10:38:43.948Z,6.90
2018-02-24T10:39:43.937Z,6.70
2018-02-24T10:40:43.946Z,6.40
2018-02-24T10:41:43.954Z,6.90
2018-02-24T10:42:43.965Z,6.60
2018-02-24T10:43:43.975Z,6.70
2018-02-24T10:44:44.001Z,6.70
2018-02-24T10:45:43.995Z,7.30
2018-02-24T10:47:44.367Z,7.00
2018-02-24T10:48:44.069Z,7.40
2018-02-24T10:49:44.037Z,6.80
2018-02-24T10:50:44.038Z,6.80
2018-02-24T10:51:44.049Z,6.90
2018-02-24T10:52:44.053Z,6.80
2018-02-24T10:53:44.070Z,6.90
2018-02-24T10:54:44.075Z,6.50
2018-02-24T10:55:44.085Z,6.80
2018-02-24T10:56:44.094Z,6.20
2018-02-24T10:57:44.104Z,6.10
2018-02-24T10:58:44.116Z,5.70
2018-02-24T10:59:44.120Z,6.10
2018-02-24T11:00:44.131Z,6.00
2018-02-24T11:01:44.137Z,5.90
2018-02-24T11:02:44.146Z,5.70
2018-02-24T11:03:44.156Z,6.00
2018-02-24T11:04:44.166Z,6.30
2018-02-24T11:05:44.180Z,5.90
2018-02-24T11:06:44.187Z,6.10
2018-02-24T11:07:44.195Z,6.10
2018-02-24T11:08:44.205Z,5.60
2018-02-24T11:09:44.212Z,5.60
2018-02-24T11:10:44.224Z,5.80
2018-02-24T11:11:44.249Z,6.00
2018-02-24T11:12:44.244Z,5.70
2018-02-24T11:13:44.259Z,5.90
2018-02-24T11:14:44.264Z,5.70
2018-02-24T11:15:44.288Z,5.80
2018-02-24T11:16:44.282Z,5.80
2018-02-24T11:17:44.304Z,5.70
2018-02-24T11:18:44.364Z,5.40
2018-02-24T11:19:44.419Z,5.60
2018-02-24T11:20:44.728Z,5.20
2018-02-24T11:21:44.331Z,4.80
2018-02-24T11:22:44.351Z,4.30
2018-02-24T11:23:44.350Z,4.80
2018-02-24T11:24:44.360Z,4.60
2018-02-24T11:25:44.402Z,4.50
2018-02-24T11:26:44.389Z,4.60
2018-02-24T11:27:44.391Z,4.50
2018-02-24T11:28:44.400Z,4.30
2018-02-24T11:29:44.409Z,4.00
2018-02-24T11:30:44.426Z,4.50
2018-02-24T11:31:44.431Z,4.60
2018-02-24T11:32:44.444Z,4.40
2018-02-24T11:33:44.460Z,4.10
2018-02-24T11:34:44.462Z,4.70
2018-02-24T11:35:44.477Z,4.50
2018-02-24T11:36:44.486Z,4.60
2018-02-24T11:37:44.503Z,4.50
2018-02-24T11:38:44.509Z,4.50
2018-02-24T11:39:44.515Z,4.60
2018-02-24T11:40:44.533Z,4.70
2018-02-24T11:41:44.533Z,3.90
2018-02-24T11:42:44.546Z,4.10
2018-02-24T11:43:44.557Z,4.30
2018-02-24T11:44:44.592Z,4.00
2018-02-24T11:45:44.577Z,3.90
2018-02-24T11:46:44.590Z,3.70
2018-02-24T11:47:44.616Z,4.20
2018-02-24T11:49:44.720Z,3.90
2018-02-24T11:50:44.816Z,3.80
2018-02-24T11:51:44.642Z,3.90
2018-02-24T11:52:44.652Z,4.10
2018-02-24T11:53:44.665Z,4.00
2018-02-24T11:54:44.673Z,3.80
2018-02-24T11:55:44.688Z,4.10
2018-02-24T11:56:44.697Z,4.40
2018-02-24T11:57:44.710Z,4.30
2018-02-24T11:58:44.720Z,4.70
2018-02-24T11:59:44.728Z,4.20
2018-02-24T12:00:44.746Z,4.10
2018-02-24T12:01:44.753Z,4.30
2018-02-24T12:02:44.761Z,4.40
2018-02-24T12:03:44.772Z,4.40
2018-02-24T12:04:44.784Z,4.30
2018-02-24T12:05:44.802Z,4.50
2018-02-24T12:06:44.805Z,4.40
2018-02-24T12:07:44.929Z,4.40
2018-02-24T12:08:44.830Z,4.40
2018-02-24T12:09:44.837Z,4.60
2018-02-24T12:10:44.849Z,4.30
2018-02-24T12:11:44.863Z,4.40
2018-02-24T12:12:44.872Z,4.60
2018-02-24T12:13:44.884Z,4.50
2018-02-24T12:14:44.892Z,5.00
2018-02-24T12:15:44.908Z,4.60
2018-02-24T12:16:44.916Z,4.60
2018-02-24T12:17:44.925Z,5.30
2018-02-24T12:18:44.937Z,5.40
2018-02-24T12:19:45.048Z,4.20
2018-02-24T12:21:44.977Z,5.00
2018-02-24T12:22:44.984Z,4.40
2018-02-24T12:23:45.347Z,4.80
2018-02-24T12:24:45.002Z,4.70
2018-02-24T12:25:45.024Z,4.70
2018-02-24T12:26:45.026Z,5.10
2018-02-24T12:27:45.038Z,4.60
2018-02-24T12:28:45.044Z,5.00
2018-02-24T12:29:45.057Z,5.30
2018-02-24T12:30:45.068Z,4.90
2018-02-24T12:31:45.081Z,5.10
2018-02-24T12:32:45.086Z,4.60
2018-02-24T12:33:45.094Z,5.20
2018-02-24T12:34:45.114Z,5.00
2018-02-24T12:35:45.117Z,4.60
2018-02-24T12:36:45.130Z,5.00
2018-02-24T12:37:45.144Z,5.00
2018-02-24T12:38:45.149Z,5.50
2018-02-24T12:39:45.163Z,5.70
2018-02-24T12:40:45.174Z,5.50
2018-02-24T12:41:45.186Z,5.30
2018-02-24T12:42:45.188Z,5.70
2018-02-24T12:43:45.204Z,5.50
2018-02-24T12:44:45.211Z,5.40
2018-02-24T12:45:45.221Z,5.60
2018-02-24T12:46:45.297Z,5.80
2018-02-24T12:47:45.243Z,5.60
2018-02-24T12:48:45.253Z,5.80
2018-02-24T12:49:45.262Z,5.80
2018-02-24T12:50:45.277Z,5.80
2018-02-24T12:51:45.283Z,5.70
2018-02-24T12:52:45.294Z,5.60
2018-02-24T12:53:45.308Z,5.50
2018-02-24T12:55:45.706Z,6.10
2018-02-24T12:56:45.358Z,6.20
2018-02-24T12:57:45.351Z,5.70
2018-02-24T12:58:45.353Z,5.50
2018-02-24T12:59:45.369Z,5.80
2018-02-24T13:00:45.376Z,5.80
2018-02-24T13:01:45.385Z,6.10
2018-02-24T13:02:45.399Z,6.40
2018-02-24T13:03:45.408Z,5.80
2018-02-24T13:04:45.422Z,5.90
2018-02-24T13:05:45.432Z,5.60
2018-02-24T13:06:45.435Z,6.00
2018-02-24T13:07:45.446Z,5.80
2018-02-24T13:08:45.458Z,5.60
2018-02-24T13:09:45.467Z,5.30
2018-02-24T13:10:45.478Z,5.70
2018-02-24T13:11:45.490Z,5.20
2018-02-24T13:12:45.509Z,5.60
2018-02-24T13:13:45.509Z,6.00
2018-02-24T13:14:45.517Z,6.10
2018-02-24T13:15:45.526Z,5.80
2018-02-24T13:16:45.539Z,5.80
2018-02-24T13:17:45.547Z,5.30
2018-02-24T13:18:45.659Z,6.10
2018-02-24T13:19:45.577Z,6.10
2018-02-24T13:20:45.583Z,5.90
2018-02-24T13:21:45.595Z,5.90